CheckWX is a tool to help pilots better visualize weather data.  It is not intended as a substitute for an official pre-flight weather briefing.

05:11:15 UTC

EDDE METAR
Erfurt Airport
Erfurt, Germany
Current

21 mins ago

EDDE 240450Z 21009KT CAVOK M04/M06 Q1038 NOSIG
Observed
Feb-24 @ 04:50 UTC
Wind
  • 210° at 9 KTS
Visibility
10,000+ meters
Flight Rules
VFR
Cloud Levels
  • Clear skies
Temperature
-4°C / 25°F
Dewpoint
-6°C / 21°F
Humidity
86%
Altimeter
30.65" Hg
Pressure
1037.91 hPa
Previous

51 mins ago

EDDE 240420Z 20007KT CAVOK M03/M06 Q1038
Observed
Feb-24 @ 04:20 UTC
Wind
  • 200° at 7 KTS
Visibility
10,000+ meters
Flight Rules
VFR
Cloud Levels
  • Clear skies
Temperature
-3°C / 27°F
Dewpoint
-6°C / 21°F
Humidity
80%
Altimeter
30.65" Hg
Pressure
1037.91 hPa
Previous

1 hour ago

EDDE 240350Z 20006KT CAVOK M04/M07 Q1038
Observed
Feb-24 @ 03:50 UTC
Wind
  • 200° at 6 KTS
Visibility
10,000+ meters
Flight Rules
VFR
Cloud Levels
  • Clear skies
Temperature
-4°C / 25°F
Dewpoint
-7°C / 19°F
Humidity
80%
Altimeter
30.65" Hg
Pressure
1037.91 hPa